sensor_id;sensor_type;location;lat;lon;timestamp;P1;durP1;ratioP1;P2;durP2;ratioP2
1949;SDS011;975;48.760;9.152;2023-12-20T00:00:55;1.50;;;0.68;;
1949;SDS011;975;48.760;9.152;2023-12-20T00:03:43;1.50;;;0.65;;
1949;SDS011;975;48.760;9.152;2023-12-20T00:06:31;0.60;;;0.45;;
1949;SDS011;975;48.760;9.152;2023-12-20T00:09:18;0.57;;;0.50;;
1949;SDS011;975;48.760;9.152;2023-12-20T00:12:08;1.00;;;0.57;;
1949;SDS011;975;48.760;9.152;2023-12-20T00:14:56;0.65;;;0.40;;
1949;SDS011;975;48.760;9.152;2023-12-20T00:17:43;1.80;;;0.50;;
1949;SDS011;975;48.760;9.152;2023-12-20T00:20:31;1.02;;;0.55;;
1949;SDS011;975;48.760;9.152;2023-12-20T00:23:19;1.00;;;0.68;;
1949;SDS011;975;48.760;9.152;2023-12-20T00:26:08;0.77;;;0.68;;
1949;SDS011;975;48.760;9.152;2023-12-20T00:28:58;0.43;;;0.43;;
1949;SDS011;975;48.760;9.152;2023-12-20T00:31:45;5.72;;;0.40;;
1949;SDS011;975;48.760;9.152;2023-12-20T00:34:33;1.05;;;0.60;;
1949;SDS011;975;48.760;9.152;2023-12-20T00:37:21;0.60;;;0.47;;
1949;SDS011;975;48.760;9.152;2023-12-20T00:40:10;0.65;;;0.57;;
1949;SDS011;975;48.760;9.152;2023-12-20T00:42:58;0.82;;;0.50;;
1949;SDS011;975;48.760;9.152;2023-12-20T00:45:47;0.80;;;0.75;;
1949;SDS011;975;48.760;9.152;2023-12-20T00:48:35;0.70;;;0.70;;
1949;SDS011;975;48.760;9.152;2023-12-20T00:51:23;0.80;;;0.50;;
1949;SDS011;975;48.760;9.152;2023-12-20T00:54:11;1.10;;;0.63;;
1949;SDS011;975;48.760;9.152;2023-12-20T00:56:59;2.00;;;0.50;;
1949;SDS011;975;48.760;9.152;2023-12-20T00:59:47;0.40;;;0.40;;
1949;SDS011;975;48.760;9.152;2023-12-20T01:02:36;1.65;;;0.70;;
1949;SDS011;975;48.760;9.152;2023-12-20T01:05:24;0.68;;;0.40;;
1949;SDS011;975;48.760;9.152;2023-12-20T01:08:12;0.50;;;0.40;;
1949;SDS011;975;48.760;9.152;2023-12-20T01:11:00;1.17;;;0.60;;
1949;SDS011;975;48.760;9.152;2023-12-20T01:13:47;1.02;;;0.85;;
1949;SDS011;975;48.760;9.152;2023-12-20T01:16:35;0.22;;;0.20;;
1949;SDS011;975;48.760;9.152;2023-12-20T01:19:25;1.08;;;0.65;;
1949;SDS011;975;48.760;9.152;2023-12-20T01:22:15;0.77;;;0.45;;
1949;SDS011;975;48.760;9.152;2023-12-20T01:25:02;0.75;;;0.47;;
1949;SDS011;975;48.760;9.152;2023-12-20T01:27:50;0.55;;;0.45;;
1949;SDS011;975;48.760;9.152;2023-12-20T01:30:38;1.02;;;0.50;;
1949;SDS011;975;48.760;9.152;2023-12-20T01:33:26;0.85;;;0.60;;
1949;SDS011;975;48.760;9.152;2023-12-20T01:36:15;0.70;;;0.47;;
1949;SDS011;975;48.760;9.152;2023-12-20T01:39:03;1.75;;;0.50;;
1949;SDS011;975;48.760;9.152;2023-12-20T01:41:52;1.80;;;0.80;;
1949;SDS011;975;48.760;9.152;2023-12-20T01:44:47;0.63;;;0.35;;
1949;SDS011;975;48.760;9.152;2023-12-20T01:47:35;0.90;;;0.45;;
1949;SDS011;975;48.760;9.152;2023-12-20T01:50:23;1.08;;;0.50;;
1949;SDS011;975;48.760;9.152;2023-12-20T01:53:19;0.98;;;0.50;;
1949;SDS011;975;48.760;9.152;2023-12-20T01:56:07;1.90;;;0.55;;
1949;SDS011;975;48.760;9.152;2023-12-20T01:58:56;0.88;;;0.50;;
1949;SDS011;975;48.760;9.152;2023-12-20T02:01:47;0.90;;;0.68;;
1949;SDS011;975;48.760;9.152;2023-12-20T02:04:35;1.02;;;0.40;;
1949;SDS011;975;48.760;9.152;2023-12-20T02:07:26;1.38;;;0.80;;
1949;SDS011;975;48.760;9.152;2023-12-20T02:10:16;1.40;;;0.60;;
1949;SDS011;975;48.760;9.152;2023-12-20T02:13:04;0.70;;;0.50;;
1949;SDS011;975;48.760;9.152;2023-12-20T02:15:52;1.63;;;0.80;;
1949;SDS011;975;48.760;9.152;2023-12-20T02:18:39;1.38;;;0.85;;
1949;SDS011;975;48.760;9.152;2023-12-20T02:21:32;2.17;;;0.90;;
1949;SDS011;975;48.760;9.152;2023-12-20T02:24:21;1.52;;;0.88;;
1949;SDS011;975;48.760;9.152;2023-12-20T02:27:09;1.30;;;0.80;;
1949;SDS011;975;48.760;9.152;2023-12-20T02:29:57;1.20;;;0.73;;
1949;SDS011;975;48.760;9.152;2023-12-20T02:32:45;1.08;;;0.80;;
1949;SDS011;975;48.760;9.152;2023-12-20T02:35:35;1.33;;;0.82;;
1949;SDS011;975;48.760;9.152;2023-12-20T02:38:24;1.75;;;0.80;;
1949;SDS011;975;48.760;9.152;2023-12-20T02:41:12;1.30;;;0.60;;
1949;SDS011;975;48.760;9.152;2023-12-20T02:44:03;2.28;;;0.98;;
1949;SDS011;975;48.760;9.152;2023-12-20T02:46:50;1.83;;;0.93;;
1949;SDS011;975;48.760;9.152;2023-12-20T02:49:38;1.05;;;0.80;;
1949;SDS011;975;48.760;9.152;2023-12-20T02:52:28;1.20;;;0.88;;
1949;SDS011;975;48.760;9.152;2023-12-20T02:55:17;1.20;;;0.70;;
1949;SDS011;975;48.760;9.152;2023-12-20T02:58:05;0.85;;;0.73;;
1949;SDS011;975;48.760;9.152;2023-12-20T03:00:53;3.33;;;0.90;;
1949;SDS011;975;48.760;9.152;2023-12-20T03:03:41;1.38;;;0.90;;
1949;SDS011;975;48.760;9.152;2023-12-20T03:06:29;1.33;;;0.90;;
1949;SDS011;975;48.760;9.152;2023-12-20T03:09:17;1.48;;;0.90;;
1949;SDS011;975;48.760;9.152;2023-12-20T03:12:06;0.70;;;0.70;;
1949;SDS011;975;48.760;9.152;2023-12-20T03:14:54;0.57;;;0.57;;
1949;SDS011;975;48.760;9.152;2023-12-20T03:17:42;1.27;;;0.65;;
1949;SDS011;975;48.760;9.152;2023-12-20T03:20:30;1.27;;;0.70;;
1949;SDS011;975;48.760;9.152;2023-12-20T03:23:19;6.07;;;0.95;;
1949;SDS011;975;48.760;9.152;2023-12-20T03:26:07;1.88;;;0.70;;
1949;SDS011;975;48.760;9.152;2023-12-20T03:28:56;2.03;;;0.70;;
1949;SDS011;975;48.760;9.152;2023-12-20T03:31:44;2.00;;;0.68;;
1949;SDS011;975;48.760;9.152;2023-12-20T03:34:35;0.80;;;0.60;;
1949;SDS011;975;48.760;9.152;2023-12-20T03:37:23;1.58;;;0.75;;
1949;SDS011;975;48.760;9.152;2023-12-20T03:40:10;0.50;;;0.35;;
1949;SDS011;975;48.760;9.152;2023-12-20T03:42:58;0.80;;;0.50;;
1949;SDS011;975;48.760;9.152;2023-12-20T03:45:48;1.08;;;0.57;;
1949;SDS011;975;48.760;9.152;2023-12-20T03:48:36;0.35;;;0.30;;
1949;SDS011;975;48.760;9.152;2023-12-20T03:51:23;1.33;;;0.30;;
1949;SDS011;975;48.760;9.152;2023-12-20T03:54:11;0.98;;;0.40;;
1949;SDS011;975;48.760;9.152;2023-12-20T03:56:59;0.52;;;0.35;;
1949;SDS011;975;48.760;9.152;2023-12-20T03:59:47;0.40;;;0.22;;
1949;SDS011;975;48.760;9.152;2023-12-20T04:02:36;0.55;;;0.17;;
1949;SDS011;975;48.760;9.152;2023-12-20T04:05:24;0.75;;;0.30;;
1949;SDS011;975;48.760;9.152;2023-12-20T04:08:12;0.30;;;0.10;;
1949;SDS011;975;48.760;9.152;2023-12-20T04:11:00;2.28;;;0.55;;
1949;SDS011;975;48.760;9.152;2023-12-20T04:13:47;1.13;;;0.30;;
1949;SDS011;975;48.760;9.152;2023-12-20T04:16:35;5.90;;;0.40;;
1949;SDS011;975;48.760;9.152;2023-12-20T04:19:26;1.50;;;0.25;;
1949;SDS011;975;48.760;9.152;2023-12-20T04:22:13;5.30;;;0.45;;
1949;SDS011;975;48.760;9.152;2023-12-20T04:25:04;0.43;;;0.20;;
1949;SDS011;975;48.760;9.152;2023-12-20T04:27:53;0.28;;;0.13;;
1949;SDS011;975;48.760;9.152;2023-12-20T04:30:41;0.85;;;0.20;;
1949;SDS011;975;48.760;9.152;2023-12-20T04:33:29;0.28;;;0.10;;
1949;SDS011;975;48.760;9.152;2023-12-20T04:36:18;0.43;;;0.28;;
1949;SDS011;975;48.760;9.152;2023-12-20T04:39:06;0.40;;;0.15;;
1949;SDS011;975;48.760;9.152;2023-12-20T04:41:54;1.45;;;0.30;;
1949;SDS011;975;48.760;9.152;2023-12-20T04:44:42;0.10;;;0.10;;
1949;SDS011;975;48.760;9.152;2023-12-20T04:47:30;0.45;;;0.03;;
1949;SDS011;975;48.760;9.152;2023-12-20T04:50:18;2.83;;;0.20;;
1949;SDS011;975;48.760;9.152;2023-12-20T04:53:14;0.30;;;0.10;;
1949;SDS011;975;48.760;9.152;2023-12-20T04:56:02;0.00;;;0.00;;
1949;SDS011;975;48.760;9.152;2023-12-20T04:58:50;0.10;;;0.10;;
1949;SDS011;975;48.760;9.152;2023-12-20T05:01:38;0.10;;;0.10;;
1949;SDS011;975;48.760;9.152;2023-12-20T05:04:26;0.28;;;0.10;;
1949;SDS011;975;48.760;9.152;2023-12-20T05:07:13;0.20;;;0.00;;
1949;SDS011;975;48.760;9.152;2023-12-20T05:10:03;0.00;;;0.00;;
1949;SDS011;975;48.760;9.152;2023-12-20T05:12:53;0.10;;;0.03;;
1949;SDS011;975;48.760;9.152;2023-12-20T05:15:41;0.40;;;0.20;;
1949;SDS011;975;48.760;9.152;2023-12-20T05:18:28;0.35;;;0.15;;
1949;SDS011;975;48.760;9.152;2023-12-20T05:21:16;0.82;;;0.10;;
1949;SDS011;975;48.760;9.152;2023-12-20T05:24:04;0.10;;;0.10;;
1949;SDS011;975;48.760;9.152;2023-12-20T05:26:54;1.85;;;0.77;;
1949;SDS011;975;48.760;9.152;2023-12-20T05:29:41;0.20;;;0.10;;
1949;SDS011;975;48.760;9.152;2023-12-20T05:32:35;0.32;;;0.10;;
1949;SDS011;975;48.760;9.152;2023-12-20T05:35:23;2.47;;;0.40;;
1949;SDS011;975;48.760;9.152;2023-12-20T05:38:11;0.00;;;0.00;;
1949;SDS011;975;48.760;9.152;2023-12-20T05:40:59;0.93;;;0.08;;
1949;SDS011;975;48.760;9.152;2023-12-20T05:43:48;0.10;;;0.10;;
1949;SDS011;975;48.760;9.152;2023-12-20T05:46:36;3.10;;;0.20;;
1949;SDS011;975;48.760;9.152;2023-12-20T05:49:25;0.10;;;0.10;;
1949;SDS011;975;48.760;9.152;2023-12-20T05:52:16;0.30;;;0.20;;
1949;SDS011;975;48.760;9.152;2023-12-20T05:55:03;0.38;;;0.10;;
1949;SDS011;975;48.760;9.152;2023-12-20T05:57:51;0.30;;;0.13;;
1949;SDS011;975;48.760;9.152;2023-12-20T06:00:41;0.50;;;0.10;;
1949;SDS011;975;48.760;9.152;2023-12-20T06:03:28;0.57;;;0.20;;
1949;SDS011;975;48.760;9.152;2023-12-20T06:06:16;0.10;;;0.10;;
1949;SDS011;975;48.760;9.152;2023-12-20T06:09:04;1.65;;;0.20;;
1949;SDS011;975;48.760;9.152;2023-12-20T06:11:52;1.77;;;0.38;;
1949;SDS011;975;48.760;9.152;2023-12-20T06:14:40;0.38;;;0.20;;
1949;SDS011;975;48.760;9.152;2023-12-20T06:17:29;1.55;;;0.30;;
1949;SDS011;975;48.760;9.152;2023-12-20T06:20:17;2.60;;;0.20;;
1949;SDS011;975;48.760;9.152;2023-12-20T06:23:05;0.60;;;0.30;;
1949;SDS011;975;48.760;9.152;2023-12-20T06:25:53;1.65;;;0.50;;
1949;SDS011;975;48.760;9.152;2023-12-20T06:28:40;1.45;;;0.35;;
1949;SDS011;975;48.760;9.152;2023-12-20T06:31:28;0.52;;;0.40;;
1949;SDS011;975;48.760;9.152;2023-12-20T06:34:22;0.68;;;0.40;;
1949;SDS011;975;48.760;9.152;2023-12-20T06:37:10;0.25;;;0.10;;
1949;SDS011;975;48.760;9.152;2023-12-20T06:39:58;0.38;;;0.10;;
1949;SDS011;975;48.760;9.152;2023-12-20T06:42:49;0.75;;;0.30;;
1949;SDS011;975;48.760;9.152;2023-12-20T06:45:36;1.45;;;0.30;;
1949;SDS011;975;48.760;9.152;2023-12-20T06:48:24;1.88;;;0.10;;
1949;SDS011;975;48.760;9.152;2023-12-20T06:51:15;0.22;;;0.20;;
1949;SDS011;975;48.760;9.152;2023-12-20T06:54:05;0.20;;;0.10;;
1949;SDS011;975;48.760;9.152;2023-12-20T06:56:53;0.65;;;0.32;;
1949;SDS011;975;48.760;9.152;2023-12-20T06:59:41;0.30;;;0.30;;
1949;SDS011;975;48.760;9.152;2023-12-20T07:02:30;3.53;;;1.33;;
1949;SDS011;975;48.760;9.152;2023-12-20T07:05:17;4.32;;;1.48;;
1949;SDS011;975;48.760;9.152;2023-12-20T07:08:07;0.73;;;0.55;;
1949;SDS011;975;48.760;9.152;2023-12-20T07:10:56;1.10;;;0.50;;
1949;SDS011;975;48.760;9.152;2023-12-20T07:13:43;1.02;;;0.80;;
1949;SDS011;975;48.760;9.152;2023-12-20T07:16:31;1.52;;;0.55;;
1949;SDS011;975;48.760;9.152;2023-12-20T07:19:20;4.40;;;0.55;;
1949;SDS011;975;48.760;9.152;2023-12-20T07:22:08;0.57;;;0.25;;
1949;SDS011;975;48.760;9.152;2023-12-20T07:24:57;0.45;;;0.35;;
1949;SDS011;975;48.760;9.152;2023-12-20T07:27:45;2.03;;;0.40;;
1949;SDS011;975;48.760;9.152;2023-12-20T07:30:36;2.05;;;0.82;;
1949;SDS011;975;48.760;9.152;2023-12-20T07:33:26;4.57;;;0.98;;
1949;SDS011;975;48.760;9.152;2023-12-20T07:36:14;0.30;;;0.20;;
1949;SDS011;975;48.760;9.152;2023-12-20T07:39:02;1.08;;;0.55;;
1949;SDS011;975;48.760;9.152;2023-12-20T07:41:51;1.50;;;0.60;;
1949;SDS011;975;48.760;9.152;2023-12-20T07:44:39;2.35;;;0.50;;
1949;SDS011;975;48.760;9.152;2023-12-20T07:47:27;0.70;;;0.70;;
1949;SDS011;975;48.760;9.152;2023-12-20T07:50:15;0.85;;;0.50;;
1949;SDS011;975;48.760;9.152;2023-12-20T07:53:03;0.70;;;0.70;;
1949;SDS011;975;48.760;9.152;2023-12-20T07:55:54;1.17;;;0.73;;
1949;SDS011;975;48.760;9.152;2023-12-20T07:58:43;1.73;;;1.00;;
1949;SDS011;975;48.760;9.152;2023-12-20T08:01:31;1.42;;;1.13;;
1949;SDS011;975;48.760;9.152;2023-12-20T08:04:22;2.88;;;1.05;;
1949;SDS011;975;48.760;9.152;2023-12-20T08:07:13;1.58;;;1.17;;
1949;SDS011;975;48.760;9.152;2023-12-20T08:10:01;2.47;;;1.38;;
1949;SDS011;975;48.760;9.152;2023-12-20T08:12:49;3.13;;;1.10;;
1949;SDS011;975;48.760;9.152;2023-12-20T08:15:38;3.05;;;1.52;;
1949;SDS011;975;48.760;9.152;2023-12-20T08:18:26;2.35;;;1.30;;
1949;SDS011;975;48.760;9.152;2023-12-20T08:21:13;1.90;;;1.30;;
1949;SDS011;975;48.760;9.152;2023-12-20T08:24:01;3.33;;;1.20;;
1949;SDS011;975;48.760;9.152;2023-12-20T08:26:49;1.80;;;1.20;;
1949;SDS011;975;48.760;9.152;2023-12-20T08:29:38;4.22;;;1.45;;
1949;SDS011;975;48.760;9.152;2023-12-20T08:32:27;3.65;;;1.40;;
1949;SDS011;975;48.760;9.152;2023-12-20T08:35:15;1.73;;;1.08;;
1949;SDS011;975;48.760;9.152;2023-12-20T08:38:06;3.92;;;1.48;;
1949;SDS011;975;48.760;9.152;2023-12-20T08:40:53;2.05;;;1.27;;
1949;SDS011;975;48.760;9.152;2023-12-20T08:43:41;2.13;;;1.30;;
1949;SDS011;975;48.760;9.152;2023-12-20T08:46:29;4.18;;;1.45;;
1949;SDS011;975;48.760;9.152;2023-12-20T08:49:18;3.28;;;1.42;;
1949;SDS011;975;48.760;9.152;2023-12-20T08:52:06;2.00;;;1.25;;
1949;SDS011;975;48.760;9.152;2023-12-20T08:54:54;5.43;;;1.50;;
1949;SDS011;975;48.760;9.152;2023-12-20T08:57:42;3.30;;;1.13;;
1949;SDS011;975;48.760;9.152;2023-12-20T09:00:30;4.32;;;1.70;;
1949;SDS011;975;48.760;9.152;2023-12-20T09:03:17;3.55;;;1.45;;
1949;SDS011;975;48.760;9.152;2023-12-20T09:06:07;2.92;;;1.67;;
1949;SDS011;975;48.760;9.152;2023-12-20T09:08:55;2.65;;;1.48;;
1949;SDS011;975;48.760;9.152;2023-12-20T09:11:42;3.20;;;1.20;;
1949;SDS011;975;48.760;9.152;2023-12-20T09:14:31;2.47;;;1.48;;
1949;SDS011;975;48.760;9.152;2023-12-20T09:17:19;4.57;;;1.88;;
1949;SDS011;975;48.760;9.152;2023-12-20T09:20:08;3.75;;;1.55;;
1949;SDS011;975;48.760;9.152;2023-12-20T09:22:58;2.60;;;1.52;;
1949;SDS011;975;48.760;9.152;2023-12-20T09:25:45;4.82;;;2.13;;
1949;SDS011;975;48.760;9.152;2023-12-20T09:28:33;5.38;;;2.08;;
1949;SDS011;975;48.760;9.152;2023-12-20T09:31:22;5.45;;;1.55;;
1949;SDS011;975;48.760;9.152;2023-12-20T09:34:10;5.43;;;1.63;;
1949;SDS011;975;48.760;9.152;2023-12-20T09:36:58;3.97;;;1.42;;
1949;SDS011;975;48.760;9.152;2023-12-20T09:39:47;5.75;;;1.58;;
1949;SDS011;975;48.760;9.152;2023-12-20T09:42:36;3.00;;;0.98;;
1949;SDS011;975;48.760;9.152;2023-12-20T09:45:25;2.55;;;1.20;;
1949;SDS011;975;48.760;9.152;2023-12-20T09:48:13;2.47;;;1.08;;
1949;SDS011;975;48.760;9.152;2023-12-20T09:51:01;2.67;;;1.10;;
1949;SDS011;975;48.760;9.152;2023-12-20T09:53:49;2.15;;;0.93;;
1949;SDS011;975;48.760;9.152;2023-12-20T09:56:39;3.78;;;0.70;;
1949;SDS011;975;48.760;9.152;2023-12-20T09:59:26;1.92;;;0.65;;
1949;SDS011;975;48.760;9.152;2023-12-20T10:02:14;0.80;;;0.60;;
1949;SDS011;975;48.760;9.152;2023-12-20T10:05:03;0.75;;;0.63;;
1949;SDS011;975;48.760;9.152;2023-12-20T10:07:54;4.03;;;0.90;;
1949;SDS011;975;48.760;9.152;2023-12-20T10:10:42;4.82;;;1.40;;
1949;SDS011;975;48.760;9.152;2023-12-20T10:13:31;2.10;;;0.60;;
1949;SDS011;975;48.760;9.152;2023-12-20T10:16:18;1.80;;;0.60;;
1949;SDS011;975;48.760;9.152;2023-12-20T10:19:11;4.97;;;0.68;;
1949;SDS011;975;48.760;9.152;2023-12-20T10:21:59;4.93;;;1.25;;
1949;SDS011;975;48.760;9.152;2023-12-20T10:24:47;0.60;;;0.57;;
1949;SDS011;975;48.760;9.152;2023-12-20T10:27:35;3.28;;;0.70;;
1949;SDS011;975;48.760;9.152;2023-12-20T10:30:24;3.33;;;0.57;;
1949;SDS011;975;48.760;9.152;2023-12-20T10:33:12;3.47;;;0.73;;
1949;SDS011;975;48.760;9.152;2023-12-20T10:35:59;0.73;;;0.50;;
1949;SDS011;975;48.760;9.152;2023-12-20T10:38:48;1.35;;;0.60;;
1949;SDS011;975;48.760;9.152;2023-12-20T10:41:37;1.55;;;0.85;;
1949;SDS011;975;48.760;9.152;2023-12-20T10:44:27;4.50;;;0.77;;
1949;SDS011;975;48.760;9.152;2023-12-20T10:47:16;1.70;;;0.70;;
1949;SDS011;975;48.760;9.152;2023-12-20T10:50:04;1.00;;;0.75;;
1949;SDS011;975;48.760;9.152;2023-12-20T10:52:52;4.20;;;1.00;;
1949;SDS011;975;48.760;9.152;2023-12-20T10:55:42;2.05;;;0.95;;
1949;SDS011;975;48.760;9.152;2023-12-20T10:58:30;3.22;;;0.95;;
1949;SDS011;975;48.760;9.152;2023-12-20T11:01:19;4.13;;;0.95;;
1949;SDS011;975;48.760;9.152;2023-12-20T11:04:09;3.42;;;0.82;;
1949;SDS011;975;48.760;9.152;2023-12-20T11:06:58;1.60;;;0.57;;
1949;SDS011;975;48.760;9.152;2023-12-20T11:09:49;2.03;;;0.80;;
1949;SDS011;975;48.760;9.152;2023-12-20T11:12:41;1.45;;;0.85;;
1949;SDS011;975;48.760;9.152;2023-12-20T11:15:31;2.80;;;0.65;;
1949;SDS011;975;48.760;9.152;2023-12-20T11:18:19;4.03;;;1.17;;
1949;SDS011;975;48.760;9.152;2023-12-20T11:21:08;1.83;;;0.70;;
1949;SDS011;975;48.760;9.152;2023-12-20T11:23:56;2.53;;;0.90;;
1949;SDS011;975;48.760;9.152;2023-12-20T11:26:46;2.63;;;0.85;;
1949;SDS011;975;48.760;9.152;2023-12-20T11:29:34;3.30;;;0.65;;
1949;SDS011;975;48.760;9.152;2023-12-20T11:32:29;1.15;;;0.73;;
1949;SDS011;975;48.760;9.152;2023-12-20T11:35:17;3.60;;;0.90;;
1949;SDS011;975;48.760;9.152;2023-12-20T11:38:08;2.58;;;0.98;;
1949;SDS011;975;48.760;9.152;2023-12-20T11:40:56;4.63;;;0.82;;
1949;SDS011;975;48.760;9.152;2023-12-20T11:43:44;3.70;;;0.55;;
1949;SDS011;975;48.760;9.152;2023-12-20T11:46:32;1.35;;;0.90;;
1949;SDS011;975;48.760;9.152;2023-12-20T11:49:22;1.77;;;0.65;;
1949;SDS011;975;48.760;9.152;2023-12-20T11:52:11;3.22;;;0.80;;
1949;SDS011;975;48.760;9.152;2023-12-20T11:55:01;1.58;;;0.65;;
1949;SDS011;975;48.760;9.152;2023-12-20T11:57:49;3.45;;;1.25;;
1949;SDS011;975;48.760;9.152;2023-12-20T12:00:37;0.82;;;0.60;;
1949;SDS011;975;48.760;9.152;2023-12-20T12:03:25;2.92;;;0.82;;
1949;SDS011;975;48.760;9.152;2023-12-20T12:06:13;4.55;;;1.00;;
1949;SDS011;975;48.760;9.152;2023-12-20T12:09:00;1.80;;;0.55;;
1949;SDS011;975;48.760;9.152;2023-12-20T12:11:51;2.20;;;0.88;;
1949;SDS011;975;48.760;9.152;2023-12-20T12:14:39;1.58;;;0.80;;
1949;SDS011;975;48.760;9.152;2023-12-20T12:17:27;3.60;;;0.90;;
1949;SDS011;975;48.760;9.152;2023-12-20T12:20:15;3.30;;;0.95;;
1949;SDS011;975;48.760;9.152;2023-12-20T12:23:07;1.90;;;0.73;;
1949;SDS011;975;48.760;9.152;2023-12-20T12:25:55;3.35;;;0.68;;
1949;SDS011;975;48.760;9.152;2023-12-20T12:28:44;4.13;;;1.25;;
1949;SDS011;975;48.760;9.152;2023-12-20T12:31:32;2.35;;;0.70;;
1949;SDS011;975;48.760;9.152;2023-12-20T12:34:20;1.38;;;0.70;;
1949;SDS011;975;48.760;9.152;2023-12-20T12:36:55;4.60;;;0.88;;
1949;SDS011;975;48.760;9.152;2023-12-20T12:39:27;2.00;;;0.88;;
1949;SDS011;975;48.760;9.152;2023-12-20T12:41:57;3.85;;;0.63;;
1949;SDS011;975;48.760;9.152;2023-12-20T12:44:29;4.82;;;1.15;;
1949;SDS011;975;48.760;9.152;2023-12-20T12:47:00;3.53;;;0.90;;
1949;SDS011;975;48.760;9.152;2023-12-20T12:49:32;5.28;;;0.90;;
1949;SDS011;975;48.760;9.152;2023-12-20T12:52:03;2.67;;;0.60;;
1949;SDS011;975;48.760;9.152;2023-12-20T12:54:35;5.07;;;0.98;;
1949;SDS011;975;48.760;9.152;2023-12-20T12:57:05;1.48;;;0.70;;
1949;SDS011;975;48.760;9.152;2023-12-20T13:02:07;0.50;;;0.50;;
1949;SDS011;975;48.760;9.152;2023-12-20T13:04:36;5.57;;;1.92;;
1949;SDS011;975;48.760;9.152;2023-12-20T13:07:06;8.25;;;0.95;;
1949;SDS011;975;48.760;9.152;2023-12-20T13:09:38;3.80;;;0.75;;
1949;SDS011;975;48.760;9.152;2023-12-20T13:12:09;1.23;;;0.60;;
1949;SDS011;975;48.760;9.152;2023-12-20T13:14:40;1.20;;;0.65;;
1949;SDS011;975;48.760;9.152;2023-12-20T13:17:09;4.10;;;0.90;;
1949;SDS011;975;48.760;9.152;2023-12-20T13:19:36;2.83;;;0.60;;
1949;SDS011;975;48.760;9.152;2023-12-20T13:22:04;3.38;;;0.80;;
1949;SDS011;975;48.760;9.152;2023-12-20T13:24:31;1.63;;;0.68;;
1949;SDS011;975;48.760;9.152;2023-12-20T13:26:59;2.92;;;1.10;;
1949;SDS011;975;48.760;9.152;2023-12-20T13:29:26;4.53;;;0.88;;
1949;SDS011;975;48.760;9.152;2023-12-20T13:31:54;2.65;;;0.43;;
1949;SDS011;975;48.760;9.152;2023-12-20T13:34:23;3.60;;;0.60;;
1949;SDS011;975;48.760;9.152;2023-12-20T13:36:50;3.40;;;0.65;;
1949;SDS011;975;48.760;9.152;2023-12-20T13:39:18;3.40;;;0.57;;
1949;SDS011;975;48.760;9.152;2023-12-20T13:41:46;2.83;;;0.60;;
1949;SDS011;975;48.760;9.152;2023-12-20T13:44:14;3.80;;;0.93;;
1949;SDS011;975;48.760;9.152;2023-12-20T13:46:42;1.27;;;0.70;;
1949;SDS011;975;48.760;9.152;2023-12-20T13:49:10;2.55;;;0.70;;
1949;SDS011;975;48.760;9.152;2023-12-20T13:51:40;1.90;;;0.60;;
1949;SDS011;975;48.760;9.152;2023-12-20T13:54:08;1.95;;;0.40;;
1949;SDS011;975;48.760;9.152;2023-12-20T13:56:36;4.30;;;0.80;;
1949;SDS011;975;48.760;9.152;2023-12-20T13:59:03;2.38;;;0.70;;
1949;SDS011;975;48.760;9.152;2023-12-20T14:01:31;3.55;;;1.00;;
1949;SDS011;975;48.760;9.152;2023-12-20T14:03:58;2.88;;;0.60;;
1949;SDS011;975;48.760;9.152;2023-12-20T14:06:26;1.77;;;0.47;;
1949;SDS011;975;48.760;9.152;2023-12-20T14:08:56;2.00;;;0.93;;
1949;SDS011;975;48.760;9.152;2023-12-20T14:11:25;4.53;;;0.73;;
1949;SDS011;975;48.760;9.152;2023-12-20T14:13:53;1.83;;;0.70;;
1949;SDS011;975;48.760;9.152;2023-12-20T14:16:23;2.72;;;0.85;;
1949;SDS011;975;48.760;9.152;2023-12-20T14:18:50;2.28;;;0.60;;
1949;SDS011;975;48.760;9.152;2023-12-20T14:21:18;3.42;;;0.65;;
1949;SDS011;975;48.760;9.152;2023-12-20T14:23:45;5.28;;;1.95;;
1949;SDS011;975;48.760;9.152;2023-12-20T14:26:14;3.53;;;0.88;;
1949;SDS011;975;48.760;9.152;2023-12-20T14:28:42;2.13;;;0.77;;
1949;SDS011;975;48.760;9.152;2023-12-20T14:31:09;1.75;;;0.65;;
1949;SDS011;975;48.760;9.152;2023-12-20T14:33:37;1.42;;;0.45;;
1949;SDS011;975;48.760;9.152;2023-12-20T14:36:05;1.50;;;0.60;;
1949;SDS011;975;48.760;9.152;2023-12-20T14:38:32;4.10;;;1.02;;
1949;SDS011;975;48.760;9.152;2023-12-20T14:41:00;3.00;;;0.55;;
1949;SDS011;975;48.760;9.152;2023-12-20T14:43:30;6.25;;;0.70;;
1949;SDS011;975;48.760;9.152;2023-12-20T14:45:57;1.45;;;0.60;;
1949;SDS011;975;48.760;9.152;2023-12-20T14:48:25;2.60;;;0.40;;
1949;SDS011;975;48.760;9.152;2023-12-20T14:50:53;2.15;;;0.70;;
1949;SDS011;975;48.760;9.152;2023-12-20T14:53:21;4.18;;;1.13;;
1949;SDS011;975;48.760;9.152;2023-12-20T14:55:50;3.30;;;0.57;;
1949;SDS011;975;48.760;9.152;2023-12-20T14:58:18;1.33;;;0.65;;
1949;SDS011;975;48.760;9.152;2023-12-20T15:00:47;4.28;;;1.20;;
1949;SDS011;975;48.760;9.152;2023-12-20T15:03:17;4.05;;;1.00;;
1949;SDS011;975;48.760;9.152;2023-12-20T15:05:44;2.50;;;1.00;;
1949;SDS011;975;48.760;9.152;2023-12-20T15:08:13;4.72;;;0.95;;
1949;SDS011;975;48.760;9.152;2023-12-20T15:10:40;1.95;;;0.70;;
1949;SDS011;975;48.760;9.152;2023-12-20T15:13:07;1.40;;;0.68;;
1949;SDS011;975;48.760;9.152;2023-12-20T15:15:34;1.23;;;0.50;;
1949;SDS011;975;48.760;9.152;2023-12-20T15:18:04;15.18;;;2.85;;
1949;SDS011;975;48.760;9.152;2023-12-20T15:20:32;3.92;;;1.10;;
1949;SDS011;975;48.760;9.152;2023-12-20T15:23:02;5.93;;;1.17;;
1949;SDS011;975;48.760;9.152;2023-12-20T15:25:32;3.33;;;1.23;;
1949;SDS011;975;48.760;9.152;2023-12-20T15:27:59;3.17;;;0.82;;
1949;SDS011;975;48.760;9.152;2023-12-20T15:30:28;4.72;;;0.95;;
1949;SDS011;975;48.760;9.152;2023-12-20T15:32:56;2.38;;;0.95;;
1949;SDS011;975;48.760;9.152;2023-12-20T15:35:25;1.25;;;0.57;;
1949;SDS011;975;48.760;9.152;2023-12-20T15:37:53;1.60;;;0.55;;
1949;SDS011;975;48.760;9.152;2023-12-20T15:40:22;2.08;;;0.63;;
1949;SDS011;975;48.760;9.152;2023-12-20T15:42:49;4.43;;;0.95;;
1949;SDS011;975;48.760;9.152;2023-12-20T15:45:18;1.80;;;0.88;;
1949;SDS011;975;48.760;9.152;2023-12-20T15:47:45;3.08;;;0.50;;
1949;SDS011;975;48.760;9.152;2023-12-20T15:50:13;0.93;;;0.68;;
1949;SDS011;975;48.760;9.152;2023-12-20T15:52:42;3.15;;;0.88;;
1949;SDS011;975;48.760;9.152;2023-12-20T15:55:09;2.38;;;1.05;;
1949;SDS011;975;48.760;9.152;2023-12-20T15:57:37;1.85;;;0.73;;
1949;SDS011;975;48.760;9.152;2023-12-20T16:00:05;2.60;;;0.90;;
1949;SDS011;975;48.760;9.152;2023-12-20T16:02:33;2.55;;;0.98;;
1949;SDS011;975;48.760;9.152;2023-12-20T16:05:01;5.15;;;1.20;;
1949;SDS011;975;48.760;9.152;2023-12-20T16:07:28;1.17;;;0.70;;
1949;SDS011;975;48.760;9.152;2023-12-20T16:09:57;2.60;;;0.80;;
1949;SDS011;975;48.760;9.152;2023-12-20T16:12:26;2.22;;;0.80;;
1949;SDS011;975;48.760;9.152;2023-12-20T16:14:53;1.38;;;0.80;;
1949;SDS011;975;48.760;9.152;2023-12-20T16:17:21;2.95;;;0.88;;
1949;SDS011;975;48.760;9.152;2023-12-20T16:19:48;4.65;;;0.98;;
1949;SDS011;975;48.760;9.152;2023-12-20T16:22:16;2.50;;;0.60;;
1949;SDS011;975;48.760;9.152;2023-12-20T16:24:44;3.25;;;1.00;;
1949;SDS011;975;48.760;9.152;2023-12-20T16:27:13;2.13;;;0.98;;
1949;SDS011;975;48.760;9.152;2023-12-20T16:29:40;3.25;;;0.60;;
1949;SDS011;975;48.760;9.152;2023-12-20T16:32:09;2.10;;;0.70;;
1949;SDS011;975;48.760;9.152;2023-12-20T16:34:36;2.83;;;0.77;;
1949;SDS011;975;48.760;9.152;2023-12-20T16:37:04;2.65;;;1.35;;
1949;SDS011;975;48.760;9.152;2023-12-20T16:39:31;3.22;;;0.80;;
1949;SDS011;975;48.760;9.152;2023-12-20T16:41:59;1.17;;;0.68;;
1949;SDS011;975;48.760;9.152;2023-12-20T16:44:28;0.82;;;0.50;;
1949;SDS011;975;48.760;9.152;2023-12-20T16:46:55;9.75;;;1.77;;
1949;SDS011;975;48.760;9.152;2023-12-20T16:49:23;1.80;;;0.85;;
1949;SDS011;975;48.760;9.152;2023-12-20T16:51:50;3.38;;;0.65;;
1949;SDS011;975;48.760;9.152;2023-12-20T16:54:18;7.43;;;1.02;;
1949;SDS011;975;48.760;9.152;2023-12-20T16:56:45;4.70;;;0.88;;
1949;SDS011;975;48.760;9.152;2023-12-20T16:59:13;3.80;;;0.90;;
1949;SDS011;975;48.760;9.152;2023-12-20T17:01:42;1.08;;;0.77;;
1949;SDS011;975;48.760;9.152;2023-12-20T17:04:12;1.98;;;0.82;;
1949;SDS011;975;48.760;9.152;2023-12-20T17:06:39;3.17;;;0.95;;
1949;SDS011;975;48.760;9.152;2023-12-20T17:09:06;2.33;;;1.10;;